ZAREMBO AK US current weather conditions

sailwx.info

Wind from 328 at 10 knots gusting 18

Air temperature 3.9° C
Dewpoint 3.6° C

Last reported at 2014-Oct-31 18:55 UTC.
Time now 2014-Oct-31 21:39 UTC

Location: N 56°18' W 132°51'.
View on Google Maps.

See reports from other nearby stations

  
Tides and Currents Weather Stations Pressure Air Temp Water Temp Dewpoint Dewpoint Depression Visibility Wind Speed Wind Dir Waves Ship Positions
date/time (UTC)wind fromknots sea level pressurealtimeterstation pressurevisibilityair tempwater tempwave heightnotes
2014-Oct-31 18:55 328 10 gusting 18 3.9
2014-Oct-31 17:55 332 12 gusting 18 3.9
2014-Oct-31 16:55 312 5 gusting 13 3.3
2014-Oct-31 15:55 313 4 gusting 11 2.8
2014-Oct-31 14:55 332 4 gusting 9 2.8
2014-Oct-31 13:55 338 1 gusting 5 2.2
2014-Oct-31 12:55 302 0 gusting 3 1.7
2014-Oct-31 11:55 271 1 gusting 9 2.2
2014-Oct-31 10:55 103 1 gusting 5 3.3
2014-Oct-31 09:55 277 0 gusting 4 3.3
2014-Oct-31 08:55 124 0 gusting 5 3.3
2014-Oct-31 07:55 297 3 gusting 6 3.3
2014-Oct-31 06:55 344 2 gusting 5 3.3
2014-Oct-31 05:55 321 2 gusting 6 3.3
2014-Oct-31 04:55 351 0 gusting 3 2.8
2014-Oct-31 03:55 065 0 gusting 3 2.8
2014-Oct-31 02:55 313 1 gusting 3 2.8
2014-Oct-31 01:55 039 1 gusting 3 2.8
2014-Oct-31 00:55 225 3 gusting 7 2.8
2014-Oct-30 23:55 342 2 gusting 13 3.3
2014-Oct-30 22:55 190 6 gusting 16 3.3
2014-Oct-30 21:55 146 1 gusting 5 2.8
2014-Oct-30 20:55 054 5 gusting 7 4.4
2014-Oct-30 19:55 190 3 gusting 5 5.0
2014-Oct-30 18:55 153 0 gusting 2 5.6
2014-Oct-30 17:55 160 0 gusting 3 5.6
2014-Oct-30 16:55 248 0 gusting 5 5.0
2014-Oct-30 15:55 270 2 gusting 6 5.6
2014-Oct-30 14:55 306 2 gusting 8 5.6
2014-Oct-30 13:55 293 4 gusting 13 6.1
2014-Oct-30 12:55 278 6 gusting 16 6.7
2014-Oct-30 11:55 275 6 gusting 18 7.2
2014-Oct-30 10:55 256 8 gusting 22 8.9
2014-Oct-30 09:55 257 8 gusting 20 8.9
2014-Oct-30 08:55 264 7 gusting 17 7.8
2014-Oct-30 07:55 269 8 gusting 18 8.3
2014-Oct-30 06:55 267 6 gusting 23 7.8
2014-Oct-30 05:55 262 8 gusting 15 7.8
2014-Oct-30 04:55 255 7 gusting 16 7.8
2014-Oct-30 03:55 257 9 gusting 18 7.8
2014-Oct-30 02:55 254 10 gusting 19 7.2
2014-Oct-30 01:55 248 5 gusting 17 7.2
2014-Oct-30 00:55 254 7 gusting 17 7.2
2014-Oct-29 23:55 268 5 gusting 12 7.8
2014-Oct-29 22:55 298 6 gusting 12 7.8
2014-Oct-29 21:55 292 4 gusting 12 7.8